createdAt,value
2023-05-12T00:02:14.655Z,101786.47
2023-05-12T00:04:42.347Z,101787.38
2023-05-12T00:07:09.795Z,101785.66
2023-05-12T00:09:38.246Z,101783.03
2023-05-12T00:12:06.026Z,101771.59
2023-05-12T00:14:33.273Z,101773.38
2023-05-12T00:17:00.795Z,101775.13
2023-05-12T00:19:28.048Z,101773.38
2023-05-12T00:21:55.304Z,101777.75
2023-05-12T00:24:22.679Z,101775.13
2023-05-12T00:26:49.946Z,101774.25
2023-05-12T00:29:18.367Z,101777.75
2023-05-12T00:31:45.850Z,101771.56
2023-05-12T00:34:13.156Z,101773.31
2023-05-12T00:36:40.412Z,101774.19
2023-05-12T00:39:07.976Z,101782.09
2023-05-12T00:41:35.437Z,101773.31
2023-05-12T00:44:02.685Z,101773.34
2023-05-12T00:46:31.309Z,101775.97
2023-05-12T00:48:59.855Z,101771.56
2023-05-12T00:51:28.386Z,101777.72
2023-05-12T00:53:57.444Z,101770.63
2023-05-12T00:56:26.771Z,101783.81
2023-05-12T00:58:54.069Z,101787.28
2023-05-12T01:01:21.838Z,101782.88
2023-05-12T01:03:53.206Z,101772.34
2023-05-12T01:06:38.707Z,101776.69
2023-05-12T01:09:08.695Z,101782.88
2023-05-12T01:11:36.431Z,101781.97
2023-05-12T01:14:04.814Z,101774.94
2023-05-12T01:16:41.172Z,101773.16
2023-05-12T01:19:36.579Z,101769.63
2023-05-12T01:22:04.369Z,101763.47
2023-05-12T01:24:36.888Z,101766.13
2023-05-12T01:27:05.511Z,101767.84
2023-05-12T01:29:33.641Z,101767.84
2023-05-12T01:32:03.559Z,101760.81
2023-05-12T01:34:34.580Z,101771.34
2023-05-12T01:37:02.541Z,101767.81
2023-05-12T01:39:30.498Z,101766.03
2023-05-12T01:41:58.486Z,101771.31
2023-05-12T01:44:26.120Z,101762.53
2023-05-12T01:46:53.446Z,101763.41
2023-05-12T01:49:22.294Z,101775.69
2023-05-12T01:51:50.343Z,101771.31
2023-05-12T01:54:23.677Z,101775.69
2023-05-12T01:56:51.138Z,101779.19
2023-05-12T01:59:18.457Z,101782.75
2023-05-12T02:01:45.958Z,101787.16
2023-05-12T02:04:16.906Z,101781.88
2023-05-12T02:06:46.374Z,101783.69
2023-05-12T02:09:13.721Z,101791.59
2023-05-12T02:11:41.810Z,101789.88
2023-05-12T02:14:09.760Z,101790.75
2023-05-12T02:16:38.133Z,101788.09
2023-05-12T02:19:05.828Z,101786.34
2023-05-12T02:21:33.459Z,101785.50
2023-05-12T02:24:00.845Z,101790.78
2023-05-12T02:26:28.482Z,101793.41
2023-05-12T02:28:56.383Z,101795.16
2023-05-12T02:31:24.129Z,101793.44
2023-05-12T02:33:53.580Z,101794.28
2023-05-12T02:36:21.089Z,101801.31
2023-05-12T02:38:48.521Z,101792.53
2023-05-12T02:41:16.330Z,101797.81
2023-05-12T02:43:44.079Z,101792.53
2023-05-12T02:46:12.025Z,101791.66
2023-05-12T02:48:39.836Z,101801.31
2023-05-12T02:51:07.337Z,101788.09
2023-05-12T02:53:34.680Z,101798.66
2023-05-12T02:56:02.010Z,101799.53
2023-05-12T02:58:29.764Z,101801.28
2023-05-12T03:01:09.300Z,101801.28
2023-05-12T03:03:37.485Z,101797.78
2023-05-12T03:06:06.126Z,101802.19
2023-05-12T03:08:33.761Z,101812.72
2023-05-12T03:11:01.247Z,101803.09
2023-05-12T03:13:31.391Z,101796.06
2023-05-12T03:16:01.751Z,101797.81
2023-05-12T03:18:32.092Z,101794.31
2023-05-12T03:20:59.646Z,101799.59
2023-05-12T03:23:27.336Z,101803.13
2023-05-12T03:25:55.771Z,101796.06
2023-05-12T03:28:26.195Z,101807.56
2023-05-12T03:30:54.060Z,101807.56
2023-05-12T03:33:21.841Z,101815.47
2023-05-12T03:35:51.792Z,101815.47
2023-05-12T03:38:20.202Z,101818.16
2023-05-12T03:40:52.654Z,101817.28
2023-05-12T03:43:21.418Z,101822.59
2023-05-12T03:45:49.951Z,101820.81
2023-05-12T03:48:17.460Z,101827.00
2023-05-12T03:50:44.762Z,101830.53
2023-05-12T03:53:12.055Z,101829.69
2023-05-12T03:55:39.572Z,101834.06
2023-05-12T03:58:08.041Z,101826.16
2023-05-12T04:00:38.897Z,101822.66
2023-05-12T04:03:08.445Z,101828.81
2023-05-12T04:05:39.620Z,101826.25
2023-05-12T04:08:07.187Z,101822.75
2023-05-12T04:10:42.390Z,101821.03
2023-05-12T04:13:09.661Z,101820.22
2023-05-12T04:15:37.320Z,101823.78
2023-05-12T04:18:04.622Z,101824.69
2023-05-12T04:20:31.966Z,101830.00
2023-05-12T04:22:59.393Z,101836.19
2023-05-12T04:25:26.918Z,101830.94
2023-05-12T04:27:54.193Z,101835.41
2023-05-12T04:30:22.068Z,101837.19
2023-05-12T04:32:50.416Z,101846.84
2023-05-12T04:35:17.699Z,101840.69
2023-05-12T04:37:45.154Z,101843.34
2023-05-12T04:40:12.736Z,101838.94
2023-05-12T04:42:40.298Z,101838.09
2023-05-12T04:45:11.039Z,101832.81
2023-05-12T04:47:39.451Z,101840.75
2023-05-12T04:50:07.478Z,101839.00
2023-05-12T04:52:34.663Z,101839.88
2023-05-12T04:55:02.518Z,101846.06
2023-05-12T04:57:29.862Z,101844.34
2023-05-12T04:59:59.284Z,101844.31
2023-05-12T05:02:29.678Z,101853.06
2023-05-12T05:04:57.447Z,101859.28
2023-05-12T05:07:25.640Z,101861.91
2023-05-12T05:09:55.014Z,101863.66
2023-05-12T05:12:22.465Z,101855.81
2023-05-12T05:14:49.921Z,101860.22
2023-05-12T05:17:17.786Z,101870.81
2023-05-12T05:19:57.333Z,101871.75
2023-05-12T05:22:28.743Z,101871.78
2023-05-12T05:24:56.373Z,101880.66
2023-05-12T05:27:23.835Z,101876.28
2023-05-12T05:29:51.608Z,101882.47
2023-05-12T05:32:18.911Z,101880.72
2023-05-12T05:34:46.350Z,101884.31
2023-05-12T05:37:13.647Z,101887.03
2023-05-12T05:39:41.268Z,101876.50
2023-05-12T05:42:08.775Z,101876.53
2023-05-12T05:44:36.623Z,101888.06
2023-05-12T05:47:05.710Z,101888.13
2023-05-12T05:49:33.708Z,101882.84
2023-05-12T05:52:02.080Z,101889.09
2023-05-12T05:54:29.463Z,101892.66
2023-05-12T05:56:56.818Z,101898.88
2023-05-12T05:59:24.473Z,101901.59
2023-05-12T06:01:51.992Z,101898.09
2023-05-12T06:04:19.599Z,101897.22
2023-05-12T06:06:47.670Z,101901.66
2023-05-12T06:09:16.019Z,101907.91
2023-05-12T06:11:43.449Z,101907.06
2023-05-12T06:14:12.400Z,101915.91
2023-05-12T06:16:39.965Z,101915.03
2023-05-12T06:19:09.360Z,101920.38
2023-05-12T06:21:38.875Z,101915.97
2023-05-12T06:24:06.737Z,101928.34
2023-05-12T06:26:34.863Z,101931.91
2023-05-12T06:29:02.169Z,101930.16
2023-05-12T06:31:31.419Z,101935.47
2023-05-12T06:33:58.795Z,101931.97
2023-05-12T06:36:26.348Z,101944.31
2023-05-12T06:38:54.015Z,101937.31
2023-05-12T06:41:22.092Z,101939.13
2023-05-12T06:43:49.309Z,101934.69
2023-05-12T06:46:16.633Z,101940.00
2023-05-12T06:48:43.884Z,101938.31
2023-05-12T06:51:11.242Z,101940.94
2023-05-12T06:53:38.658Z,101952.44
2023-05-12T06:56:06.209Z,101955.94
2023-05-12T06:58:33.538Z,101958.59
2023-05-12T07:01:01.076Z,101955.94
2023-05-12T07:03:32.258Z,101963.00
2023-05-12T07:05:59.602Z,101962.13
2023-05-12T07:08:31.583Z,101952.47
2023-05-12T07:11:03.112Z,101957.78
2023-05-12T07:13:31.730Z,101963.09
2023-05-12T07:16:00.252Z,101956.97
2023-05-12T07:18:27.654Z,101956.16
2023-05-12T07:20:55.758Z,101965.06
2023-05-12T07:23:23.033Z,101960.75
2023-05-12T07:25:50.234Z,101952.88
2023-05-12T07:28:17.746Z,101967.09
2023-05-12T07:30:44.981Z,101961.03
2023-05-12T07:33:12.343Z,101971.66
2023-05-12T07:35:39.777Z,101971.72
2023-05-12T07:38:09.468Z,101969.13
2023-05-12T07:40:36.843Z,101971.81
2023-05-12T07:43:04.126Z,101963.03
2023-05-12T07:45:31.353Z,101966.66
2023-05-12T07:47:58.655Z,101968.53
2023-05-12T07:50:26.411Z,101968.59
2023-05-12T07:52:54.197Z,101970.47
2023-05-12T07:55:23.020Z,101973.16
2023-05-12T07:57:50.920Z,101984.66
2023-05-12T08:00:19.065Z,101981.19
2023-05-12T08:02:47.832Z,101980.34
2023-05-12T08:05:15.621Z,101980.44
2023-05-12T08:07:44.015Z,101975.22
2023-05-12T08:10:13.144Z,101979.69
2023-05-12T08:12:41.680Z,101981.47
2023-05-12T08:15:09.902Z,101977.09
2023-05-12T08:17:37.453Z,101981.53
2023-05-12T08:20:05.284Z,101985.16
2023-05-12T08:22:32.546Z,101992.22
2023-05-12T08:24:59.790Z,101991.34
2023-05-12T08:27:27.396Z,101985.16
2023-05-12T08:29:56.855Z,101994.88
2023-05-12T08:32:24.525Z,101996.69
2023-05-12T08:34:52.141Z,101996.69
2023-05-12T08:37:19.564Z,101993.16
2023-05-12T08:39:46.842Z,101983.44
2023-05-12T08:42:35.239Z,101988.75
2023-05-12T08:45:03.845Z,102000.25
2023-05-12T08:47:33.652Z,101991.41
2023-05-12T08:50:03.538Z,101992.25
2023-05-12T08:52:36.029Z,102002.00
2023-05-12T08:55:05.107Z,101996.66
2023-05-12T08:57:33.765Z,102005.50
2023-05-12T09:00:04.815Z,102009.91
2023-05-12T09:02:44.667Z,102011.63
2023-05-12T09:05:16.072Z,102004.53
2023-05-12T09:07:47.152Z,102015.13
2023-05-12T09:10:32.802Z,102009.81
2023-05-12T09:13:22.881Z,102017.81
2023-05-12T09:15:53.876Z,102018.69
2023-05-12T09:18:21.836Z,102024.84
2023-05-12T09:20:49.446Z,102028.34
2023-05-12T09:23:19.102Z,102022.97
2023-05-12T09:25:49.675Z,102032.69
2023-05-12T09:28:17.677Z,102023.75
2023-05-12T09:30:44.867Z,102028.16
2023-05-12T09:33:13.313Z,102022.78
2023-05-12T09:35:45.035Z,102025.44
2023-05-12T09:38:17.105Z,102033.44
2023-05-12T09:40:45.589Z,102019.28
2023-05-12T09:43:15.396Z,102013.03
2023-05-12T09:45:44.388Z,102021.88
2023-05-12T09:48:13.014Z,102020.03
2023-05-12T09:50:47.658Z,102021.75
2023-05-12T09:53:17.891Z,102021.72
2023-05-12T09:55:46.758Z,102028.75
2023-05-12T09:58:19.192Z,102023.34
2023-05-12T10:03:18.759Z,102017.69
2023-05-12T10:06:01.601Z,102027.28
2023-05-12T10:08:42.384Z,102036.97
2023-05-12T10:11:10.133Z,102033.44
2023-05-12T10:13:38.522Z,102041.53
2023-05-12T10:16:07.124Z,102031.78
2023-05-12T10:18:35.152Z,102038.84
2023-05-12T10:21:04.021Z,102030.81
2023-05-12T10:23:31.858Z,102030.75
2023-05-12T10:26:07.305Z,102022.63
2023-05-12T10:28:34.601Z,102035.03
2023-05-12T10:31:03.492Z,102029.56
2023-05-12T10:33:31.161Z,102029.38
2023-05-12T10:35:59.791Z,102027.47
2023-05-12T10:38:27.236Z,102021.13
2023-05-12T10:40:58.822Z,102019.16
2023-05-12T10:43:38.651Z,102024.38
2023-05-12T10:46:26.637Z,102021.59
2023-05-12T10:49:06.063Z,102026.81
2023-05-12T10:51:54.645Z,102029.34
2023-05-12T10:54:25.463Z,102022.09
2023-05-12T10:56:57.586Z,102021.13
2023-05-12T10:59:27.169Z,102022.75
2023-05-12T11:02:03.091Z,102019.97
2023-05-12T11:04:37.609Z,102026.97
2023-05-12T11:07:08.339Z,102024.16
2023-05-12T11:09:44.619Z,102019.56
2023-05-12T11:12:17.916Z,102013.22
2023-05-12T11:14:47.379Z,102022.91
2023-05-12T11:17:16.270Z,102025.53
2023-05-12T11:19:51.302Z,102022.75
2023-05-12T11:22:21.640Z,102020.97
2023-05-12T11:24:49.781Z,102023.63
2023-05-12T11:27:20.084Z,102028.81
2023-05-12T11:29:56.212Z,102024.28
2023-05-12T11:32:23.425Z,102021.47
2023-05-12T11:34:51.125Z,102026.75
2023-05-12T11:37:21.573Z,102032.09
2023-05-12T11:39:49.463Z,102038.34
2023-05-12T11:42:19.818Z,102025.88
2023-05-12T11:44:49.589Z,102031.13
2023-05-12T11:47:19.159Z,102025.66
2023-05-12T11:49:48.954Z,102024.66
2023-05-12T11:52:17.346Z,102029.88
2023-05-12T11:55:00.354Z,102029.81
2023-05-12T11:57:35.087Z,102031.44
2023-05-12T12:00:06.943Z,102028.56
2023-05-12T12:02:36.260Z,102032.91
2023-05-12T12:05:04.168Z,102032.59
2023-05-12T12:07:36.636Z,102030.53
2023-05-12T12:10:17.233Z,102031.38
2023-05-12T12:12:46.507Z,102033.94
2023-05-12T12:15:13.824Z,102029.25
2023-05-12T12:17:41.183Z,102034.31
2023-05-12T12:20:14.471Z,102034.97
2023-05-12T12:22:41.758Z,102038.41
2023-05-12T12:25:11.109Z,102035.72
2023-05-12T12:27:43.712Z,102038.63
2023-05-12T12:30:11.897Z,102042.59
2023-05-12T12:32:40.729Z,102039.94
2023-05-12T12:35:09.224Z,102031.88
2023-05-12T12:37:36.559Z,102032.69
2023-05-12T12:40:08.549Z,102031.63
2023-05-12T12:42:37.465Z,102035.94
2023-05-12T12:45:08.425Z,102037.63
2023-05-12T12:47:38.270Z,102036.63
2023-05-12T12:50:10.889Z,102025.78
2023-05-12T12:52:38.659Z,102032.78
2023-05-12T12:55:07.296Z,102040.75
2023-05-12T12:57:35.120Z,102034.41
2023-05-12T13:00:04.633Z,102036.16
2023-05-12T13:02:32.233Z,102039.66
2023-05-12T13:05:04.168Z,102035.97
2023-05-12T13:07:32.166Z,102037.69
2023-05-12T13:09:59.434Z,102038.63
2023-05-12T13:12:26.829Z,102035.03
2023-05-12T13:14:54.271Z,102025.22
2023-05-12T13:17:21.527Z,102030.56
2023-05-12T13:19:48.782Z,102035.81
2023-05-12T13:22:16.508Z,102034.81
2023-05-12T13:24:45.465Z,102042.78
2023-05-12T13:27:12.773Z,102035.53
2023-05-12T13:29:42.127Z,102037.25
2023-05-12T13:32:09.510Z,102027.16
2023-05-12T13:34:36.765Z,102031.44
2023-05-12T13:37:04.502Z,102019.56
2023-05-12T13:39:32.073Z,102024.81
2023-05-12T13:41:59.898Z,102026.41
2023-05-12T13:44:27.596Z,102036.31
2023-05-12T13:46:54.798Z,102031.16
2023-05-12T13:49:23.076Z,102026.19
2023-05-12T13:51:51.892Z,102029.22
2023-05-12T13:54:19.255Z,102034.25
2023-05-12T13:56:46.500Z,102027.53
2023-05-12T13:59:13.822Z,102032.44
2023-05-12T14:01:41.257Z,102040.75
2023-05-12T14:04:08.728Z,102025.75
2023-05-12T14:06:36.539Z,102028.44
2023-05-12T14:09:07.523Z,102032.13
2023-05-12T14:11:35.469Z,102027.72
2023-05-12T14:14:03.643Z,102025.88
2023-05-12T14:16:31.519Z,102024.00
2023-05-12T14:19:00.452Z,102036.59
2023-05-12T14:21:28.029Z,102023.13
2023-05-12T14:23:57.222Z,102019.47
2023-05-12T14:26:26.135Z,102024.59
2023-05-12T14:28:53.537Z,102021.81
2023-05-12T14:31:22.345Z,102027.25
2023-05-12T14:33:49.714Z,102019.22
2023-05-12T14:36:17.054Z,102024.72
2023-05-12T14:38:44.658Z,102032.06
2023-05-12T14:41:12.009Z,102033.06
2023-05-12T14:43:39.420Z,102029.72
2023-05-12T14:46:09.027Z,102033.50
2023-05-12T14:48:36.391Z,102040.94
2023-05-12T14:51:05.061Z,102042.03
2023-05-12T14:53:32.725Z,102040.50
2023-05-12T14:56:01.384Z,102046.97
2023-05-12T14:58:28.725Z,102044.53
2023-05-12T15:00:56.240Z,102051.84
2023-05-12T15:03:24.193Z,102050.19
2023-05-12T15:08:21.899Z,102055.75
2023-05-12T15:10:49.882Z,102050.47
2023-05-12T15:13:20.369Z,102056.72
2023-05-12T15:15:47.856Z,102061.22
2023-05-12T15:18:15.642Z,102067.56
2023-05-12T15:20:46.225Z,102053.53
2023-05-12T15:23:13.731Z,102061.69
2023-05-12T15:25:42.085Z,102060.97
2023-05-12T15:28:10.005Z,102062.88
2023-05-12T15:30:37.888Z,102059.38
2023-05-12T15:33:08.494Z,102063.91
2023-05-12T15:35:36.163Z,102064.84
2023-05-12T15:38:06.123Z,102061.22
2023-05-12T15:40:34.636Z,102060.38
2023-05-12T15:43:03.440Z,102058.66
2023-05-12T15:45:31.513Z,102057.91
2023-05-12T15:47:59.200Z,102061.56
2023-05-12T15:50:26.737Z,102064.34
2023-05-12T15:52:54.074Z,102076.97
2023-05-12T15:55:21.622Z,102069.09
2023-05-12T15:57:50.159Z,102073.69
2023-05-12T16:00:17.895Z,102073.81
2023-05-12T16:02:47.920Z,102070.31
2023-05-12T16:05:15.348Z,102079.25
2023-05-12T16:07:43.328Z,102074.84
2023-05-12T16:10:11.914Z,102079.31
2023-05-12T16:12:40.265Z,102072.19
2023-05-12T16:15:08.654Z,102073.97
2023-05-12T16:17:36.269Z,102076.59
2023-05-12T16:20:05.309Z,102072.06
2023-05-12T16:22:32.558Z,102072.06
2023-05-12T16:24:59.928Z,102064.91
2023-05-12T16:27:27.307Z,102076.47
2023-05-12T16:29:55.788Z,102075.59
2023-05-12T16:32:23.621Z,102074.75
2023-05-12T16:34:51.402Z,102067.59
2023-05-12T16:37:18.769Z,102076.56
2023-05-12T16:39:46.085Z,102071.22
2023-05-12T16:42:13.452Z,102078.38
2023-05-12T16:44:40.775Z,102063.22
2023-05-12T16:47:09.560Z,102075.72
2023-05-12T16:49:36.911Z,102076.63
2023-05-12T16:52:06.012Z,102070.44
2023-05-12T16:54:33.376Z,102074.88
2023-05-12T16:57:04.945Z,102076.66
2023-05-12T16:59:36.330Z,102073.97
2023-05-12T17:02:05.166Z,102071.28
2023-05-12T17:04:32.743Z,102075.72
2023-05-12T17:07:01.569Z,102076.66
2023-05-12T17:09:28.915Z,102076.63
2023-05-12T17:11:56.520Z,102078.41
2023-05-12T17:14:23.834Z,102081.06
2023-05-12T17:16:51.638Z,102080.19
2023-05-12T17:19:19.016Z,102084.66
2023-05-12T17:21:46.631Z,102084.66
2023-05-12T17:24:14.498Z,102088.22
2023-05-12T17:26:42.304Z,102088.22
2023-05-12T17:29:09.822Z,102098.94
2023-05-12T17:31:37.742Z,102093.66
2023-05-12T17:34:06.033Z,102099.03
2023-05-12T17:36:33.383Z,102100.91
2023-05-12T17:39:00.909Z,102107.22
2023-05-12T17:41:29.314Z,102109.03
2023-05-12T17:43:56.906Z,102111.75
2023-05-12T17:46:24.609Z,102106.47
2023-05-12T17:48:52.320Z,102110.09
2023-05-12T17:51:20.056Z,102113.72
2023-05-12T17:53:47.327Z,102111.06
2023-05-12T17:56:14.577Z,102111.13
2023-05-12T17:58:42.842Z,102113.81
2023-05-12T18:01:10.492Z,102118.28
2023-05-12T18:03:38.100Z,102113.00
2023-05-12T18:06:05.846Z,102125.50
2023-05-12T18:08:33.155Z,102127.34
2023-05-12T18:11:00.642Z,102123.84
2023-05-12T18:13:28.106Z,102136.28
2023-05-12T18:15:55.518Z,102139.88
2023-05-12T18:18:22.836Z,102138.13
2023-05-12T18:20:50.914Z,102133.72
2023-05-12T18:23:18.452Z,102144.44
2023-05-12T18:25:47.467Z,102143.56
2023-05-12T18:28:15.113Z,102141.81
2023-05-12T18:30:42.749Z,102140.06
2023-05-12T18:33:10.752Z,102155.16
2023-05-12T18:35:38.190Z,102151.66
2023-05-12T18:38:05.723Z,102148.13
2023-05-12T18:40:33.032Z,102163.22
2023-05-12T18:43:02.878Z,102154.34
2023-05-12T18:45:32.742Z,102154.38
2023-05-12T18:48:00.832Z,102154.41
2023-05-12T18:50:28.251Z,102157.97
2023-05-12T18:52:55.895Z,102168.63
2023-05-12T18:55:23.988Z,102160.66
2023-05-12T18:57:51.389Z,102168.63
2023-05-12T19:00:23.559Z,102166.88
2023-05-12T19:02:53.505Z,102177.50
2023-05-12T19:05:21.277Z,102181.97
2023-05-12T19:07:48.819Z,102181.97
2023-05-12T19:10:16.443Z,102178.44
2023-05-12T19:12:48.219Z,102181.97
2023-05-12T19:15:16.328Z,102181.09
2023-05-12T19:17:43.910Z,102181.09
2023-05-12T19:20:12.046Z,102188.19
2023-05-12T19:22:39.341Z,102181.09
2023-05-12T19:25:07.138Z,102190.81
2023-05-12T19:27:34.606Z,102187.28
2023-05-12T19:30:02.665Z,102189.94
2023-05-12T19:32:31.525Z,102184.59
2023-05-12T19:35:00.222Z,102195.25
2023-05-12T19:37:27.951Z,102194.38
2023-05-12T19:39:55.720Z,102192.56
2023-05-12T19:42:23.612Z,102192.56
2023-05-12T19:44:51.307Z,102189.91
2023-05-12T19:47:19.375Z,102199.63
2023-05-12T19:49:47.291Z,102196.94
2023-05-12T19:52:14.724Z,102201.34
2023-05-12T19:54:43.309Z,102210.22
2023-05-12T19:57:10.826Z,102205.78
2023-05-12T19:59:41.380Z,102203.94
2023-05-12T20:02:12.957Z,102209.25
2023-05-12T20:04:41.189Z,102216.28
2023-05-12T20:07:08.719Z,102213.63
2023-05-12T20:09:37.036Z,102214.50
2023-05-12T20:12:07.795Z,102210.91
2023-05-12T20:14:36.486Z,102218.84
2023-05-12T20:17:07.442Z,102218.81
2023-05-12T20:19:38.642Z,102219.69
2023-05-12T20:22:06.603Z,102225.00
2023-05-12T20:24:34.096Z,102222.28
2023-05-12T20:27:03.721Z,102224.06
2023-05-12T20:29:34.721Z,102225.81
2023-05-12T20:32:05.496Z,102224.88
2023-05-12T20:34:33.587Z,102229.31
2023-05-12T20:37:01.219Z,102229.22
2023-05-12T20:39:29.832Z,102232.72
2023-05-12T20:41:57.598Z,102232.72
2023-05-12T20:44:26.532Z,102232.69
2023-05-12T20:46:54.617Z,102232.63
2023-05-12T20:49:22.008Z,102234.34
2023-05-12T20:51:49.462Z,102241.41
2023-05-12T20:54:17.059Z,102236.06
2023-05-12T20:56:44.671Z,102241.34
2023-05-12T20:59:12.461Z,102241.28
2023-05-12T21:01:39.746Z,102237.72
2023-05-12T21:04:07.475Z,102243.88
2023-05-12T21:06:36.197Z,102246.47
2023-05-12T21:09:05.207Z,102236.69
2023-05-12T21:11:32.762Z,102240.19
2023-05-12T21:14:00.561Z,102233.97
2023-05-12T21:16:29.044Z,102242.78
2023-05-12T21:18:57.063Z,102236.53
2023-05-12T21:21:24.522Z,102238.28
2023-05-12T21:23:51.889Z,102238.19
2023-05-12T21:26:19.625Z,102245.19
2023-05-12T21:28:47.157Z,102236.34
2023-05-12T21:31:14.438Z,102250.44
2023-05-12T21:33:42.405Z,102245.94
2023-05-12T21:36:09.769Z,102260.00
2023-05-12T21:38:37.031Z,102252.91
2023-05-12T21:41:04.403Z,102255.53
2023-05-12T21:43:31.672Z,102250.16
2023-05-12T21:46:03.441Z,102254.56
2023-05-12T21:48:32.082Z,102266.88
2023-05-12T21:51:02.252Z,102247.38
2023-05-12T21:53:29.846Z,102253.56
2023-05-12T21:55:57.135Z,102249.09
2023-05-12T21:58:27.076Z,102253.44
2023-05-12T22:00:54.477Z,102254.28
2023-05-12T22:03:22.900Z,102264.88
2023-05-12T22:05:50.596Z,102253.34
2023-05-12T22:08:19.444Z,102257.75
2023-05-12T22:10:47.166Z,102252.38
2023-05-12T22:13:15.655Z,102256.75
2023-05-12T22:15:43.423Z,102257.59
2023-05-12T22:18:10.968Z,102260.19
2023-05-12T22:20:38.352Z,102268.09
2023-05-12T22:23:06.251Z,102258.28
2023-05-12T22:25:33.556Z,102262.66
2023-05-12T22:28:00.844Z,102270.59
2023-05-12T22:30:28.092Z,102262.59
2023-05-12T22:32:55.572Z,102263.44
2023-05-12T22:35:22.921Z,102266.09
2023-05-12T22:37:50.390Z,102269.56
2023-05-12T22:40:18.183Z,102268.66
2023-05-12T22:42:46.836Z,102272.13
2023-05-12T22:45:14.147Z,102265.91
2023-05-12T22:47:41.867Z,102277.38
2023-05-12T22:50:10.683Z,102274.66
2023-05-12T22:52:38.272Z,102271.03
2023-05-12T22:55:06.007Z,102269.19
2023-05-12T22:57:33.312Z,102263.88
2023-05-12T23:00:00.856Z,102252.31
2023-05-12T23:02:28.415Z,102262.81
2023-05-12T23:04:55.923Z,102258.34
2023-05-12T23:07:23.574Z,102260.97
2023-05-12T23:09:52.449Z,102266.16
2023-05-12T23:12:21.071Z,102262.63
2023-05-12T23:14:48.472Z,102261.72
2023-05-12T23:17:16.055Z,102265.22
2023-05-12T23:19:43.499Z,102260.75
2023-05-12T23:22:10.834Z,102259.88
2023-05-12T23:24:38.285Z,102263.31
2023-05-12T23:27:06.005Z,102263.31
2023-05-12T23:29:34.744Z,102265.06
2023-05-12T23:32:02.643Z,102264.13
2023-05-12T23:34:33.363Z,102255.28
2023-05-12T23:37:00.757Z,102263.19
2023-05-12T23:39:27.949Z,102265.78
2023-05-12T23:41:55.368Z,102256.03
2023-05-12T23:44:22.832Z,102261.28
2023-05-12T23:46:50.507Z,102262.09
2023-05-12T23:49:18.011Z,102266.44
2023-05-12T23:51:46.298Z,102260.22
2023-05-12T23:54:13.557Z,102257.56
2023-05-12T23:56:42.193Z,102262.78
2023-05-12T23:59:09.590Z,102259.22
